createdAt,value
2022-08-08T00:01:21.169Z,100022.34
2022-08-08T00:04:37.939Z,100032.94
2022-08-08T00:07:21.724Z,100025.78
2022-08-08T00:10:17.749Z,100030.16
2022-08-08T00:13:20.931Z,100031.03
2022-08-08T00:16:24.317Z,100041.31
2022-08-08T00:18:54.344Z,100046.69
2022-08-08T00:21:39.687Z,100047.53
2022-08-08T00:24:34.674Z,100038.53
2022-08-08T00:27:07.102Z,100044.94
2022-08-08T00:29:47.085Z,100049.25
2022-08-08T00:32:38.830Z,100048.66
2022-08-08T00:35:28.528Z,100038.63
2022-08-08T00:38:07.659Z,100050.81
2022-08-08T00:41:54.595Z,100047.81
2022-08-08T00:44:57.755Z,100044.81
2022-08-08T00:48:05.114Z,100040.94
2022-08-08T00:51:15.206Z,100041.94
2022-08-08T00:54:13.472Z,100048.13
2022-08-08T00:57:08.680Z,100043.88
2022-08-08T01:00:09.569Z,100039.25
2022-08-08T01:03:57.572Z,100036.16
2022-08-08T01:06:39.325Z,100034.31
2022-08-08T01:09:35.641Z,100037.09
2022-08-08T01:12:37.550Z,100035.69
2022-08-08T01:15:50.317Z,100035.38
2022-08-08T01:18:53.594Z,100043.31
2022-08-08T01:22:12.234Z,100034.53
2022-08-08T01:25:00.675Z,100043.50
2022-08-08T01:27:46.185Z,100039.03
2022-08-08T01:31:00.127Z,100038.94
2022-08-08T01:34:00.743Z,100045.25
2022-08-08T01:37:13.864Z,100049.66
2022-08-08T01:40:00.091Z,100048.88
2022-08-08T01:42:53.349Z,100045.13
2022-08-08T01:45:45.583Z,100055.00
2022-08-08T01:48:43.820Z,100054.00
2022-08-08T01:52:32.556Z,100045.97
2022-08-08T01:55:26.039Z,100045.03
2022-08-08T01:58:11.642Z,100050.38
2022-08-08T02:01:02.890Z,100053.16
2022-08-08T02:03:54.886Z,100047.81
2022-08-08T02:07:04.061Z,100046.97
2022-08-08T02:10:03.306Z,100045.25
2022-08-08T02:12:42.754Z,100052.31
2022-08-08T02:15:21.934Z,100046.97
2022-08-08T02:18:10.302Z,100045.97
2022-08-08T02:21:34.114Z,100045.13
2022-08-08T02:27:19.009Z,100041.59
2022-08-08T02:30:13.093Z,100045.03
2022-08-08T02:33:10.190Z,100051.22
2022-08-08T02:36:02.652Z,100038.72
2022-08-08T02:38:51.492Z,100043.09
2022-08-08T02:42:04.074Z,100046.66
2022-08-08T02:44:58.017Z,100036.69
2022-08-08T02:47:33.819Z,100040.09
2022-08-08T02:50:20.464Z,100040.00
2022-08-08T02:53:17.208Z,100046.19
2022-08-08T02:56:08.553Z,100054.91
2022-08-08T02:59:17.260Z,100056.59
2022-08-08T03:02:30.239Z,100053.84
2022-08-08T03:05:03.296Z,100059.97
2022-08-08T03:07:57.635Z,100061.56
2022-08-08T03:11:05.245Z,100063.19
2022-08-08T03:16:01.148Z,100056.84
2022-08-08T03:17:08.509Z,100061.25
2022-08-08T03:20:03.764Z,100062.75
2022-08-08T03:22:51.023Z,100058.34
2022-08-08T03:25:35.845Z,100057.03
2022-08-08T03:28:07.833Z,100060.38
2022-08-08T03:30:36.538Z,100058.66
2022-08-08T03:33:55.511Z,100063.81
2022-08-08T03:36:19.482Z,100065.31
2022-08-08T03:38:58.463Z,100066.28
2022-08-08T03:42:12.651Z,100058.75
2022-08-08T03:44:34.526Z,100071.94
2022-08-08T03:47:14.075Z,100079.66
2022-08-08T03:50:00.188Z,100073.00
2022-08-08T03:52:35.349Z,100074.59
2022-08-08T03:55:55.242Z,100078.81
2022-08-08T03:58:09.598Z,100082.00
2022-08-08T04:01:01.958Z,100084.34
2022-08-08T04:04:00.295Z,100084.13
2022-08-08T04:06:29.357Z,100077.91
2022-08-08T04:09:06.779Z,100088.41
2022-08-08T04:11:58.015Z,100081.09
2022-08-08T04:14:34.072Z,100085.84
2022-08-08T04:17:07.151Z,100085.63
2022-08-08T04:19:50.463Z,100087.91
2022-08-08T04:22:19.118Z,100087.03
2022-08-08T04:24:51.354Z,100084.53
2022-08-08T04:27:42.617Z,100079.59
2022-08-08T04:30:18.590Z,100087.19
2022-08-08T04:32:50.980Z,100090.72
2022-08-08T04:35:22.556Z,100088.66
2022-08-08T04:37:51.951Z,100089.22
2022-08-08T04:40:24.071Z,100086.53
2022-08-08T04:42:56.961Z,100093.81
2022-08-08T04:45:33.475Z,100086.50
2022-08-08T04:48:01.722Z,100093.25
2022-08-08T04:50:38.352Z,100091.19
2022-08-08T04:53:52.395Z,100092.56
2022-08-08T04:55:58.844Z,100096.72
2022-08-08T04:58:30.508Z,100099.81
2022-08-08T05:00:58.533Z,100094.47
2022-08-08T05:04:09.598Z,100106.38
2022-08-08T05:06:25.257Z,100094.63
2022-08-08T05:08:54.284Z,100109.19
2022-08-08T05:11:26.194Z,100104.53
2022-08-08T05:14:01.411Z,100102.75
2022-08-08T05:16:55.525Z,100111.47
2022-08-08T05:20:12.406Z,100105.88
2022-08-08T05:22:10.230Z,100115.38
2022-08-08T05:24:41.669Z,100116.03
2022-08-08T05:27:15.801Z,100117.50
2022-08-08T05:29:43.124Z,100113.75
2022-08-08T05:32:12.638Z,100112.41
2022-08-08T05:34:46.448Z,100129.78
2022-08-08T05:37:19.466Z,100127.72
2022-08-08T05:39:53.025Z,100128.56
2022-08-08T05:42:51.759Z,100134.00
2022-08-08T05:45:30.567Z,100132.91
2022-08-08T05:48:08.638Z,100132.59
2022-08-08T05:50:38.696Z,100134.00
2022-08-08T05:53:55.401Z,100132.06
2022-08-08T05:56:10.002Z,100128.66
2022-08-08T05:58:54.034Z,100128.75
2022-08-08T06:01:56.358Z,100130.03
2022-08-08T06:04:23.476Z,100125.88
2022-08-08T06:07:01.941Z,100126.19
2022-08-08T06:10:00.267Z,100122.41
2022-08-08T06:12:29.712Z,100132.66
2022-08-08T06:15:07.739Z,100125.44
2022-08-08T06:17:51.079Z,100123.63
2022-08-08T06:20:28.904Z,100130.19
2022-08-08T06:22:57.838Z,100135.22
2022-08-08T06:26:35.963Z,100125.91
2022-08-08T06:28:34.996Z,100125.78
2022-08-08T06:31:05.435Z,100131.03
2022-08-08T06:34:26.150Z,100137.44
2022-08-08T06:36:53.332Z,100127.63
2022-08-08T06:39:25.838Z,100129.03
2022-08-08T06:42:02.632Z,100129.75
2022-08-08T06:44:48.687Z,100133.75
2022-08-08T06:47:15.705Z,100137.44
2022-08-08T06:49:55.988Z,100135.75
2022-08-08T06:52:27.746Z,100135.44
2022-08-08T06:54:58.675Z,100136.84
2022-08-08T06:57:29.462Z,100138.81
2022-08-08T07:00:14.610Z,100142.25
2022-08-08T07:02:45.827Z,100143.28
2022-08-08T07:05:20.648Z,100140.56
2022-08-08T07:07:52.760Z,100149.72
2022-08-08T07:10:25.935Z,100149.56
2022-08-08T07:12:58.647Z,100155.09
2022-08-08T07:16:04.649Z,100158.59
2022-08-08T07:18:51.857Z,100154.50
2022-08-08T07:21:30.999Z,100154.28
2022-08-08T07:24:04.809Z,100146.91
2022-08-08T07:26:46.930Z,100151.88
2022-08-08T07:29:20.649Z,100156.88
2022-08-08T07:32:10.323Z,100158.31
2022-08-08T07:35:00.170Z,100152.91
2022-08-08T07:37:56.444Z,100169.28
2022-08-08T07:40:48.433Z,100162.56
2022-08-08T07:43:35.247Z,100171.69
2022-08-08T07:46:23.598Z,100172.94
2022-08-08T07:48:56.964Z,100168.09
2022-08-08T07:51:44.972Z,100170.38
2022-08-08T07:54:32.723Z,100176.34
2022-08-08T07:57:09.015Z,100178.91
2022-08-08T07:59:55.882Z,100174.81
2022-08-08T08:02:37.092Z,100174.94
2022-08-08T08:05:20.478Z,100182.94
2022-08-08T08:07:55.761Z,100182.63
2022-08-08T08:10:33.324Z,100188.31
2022-08-08T08:13:25.443Z,100185.31
2022-08-08T08:16:17.072Z,100182.69
2022-08-08T08:18:56.108Z,100187.25
2022-08-08T08:21:44.431Z,100181.25
2022-08-08T08:24:32.488Z,100182.53
2022-08-08T08:27:03.647Z,100184.94
2022-08-08T08:29:33.383Z,100194.16
2022-08-08T08:32:05.684Z,100188.69
2022-08-08T08:34:35.901Z,100192.25
2022-08-08T08:37:07.999Z,100187.59
2022-08-08T08:39:39.226Z,100189.63
2022-08-08T08:42:29.083Z,100182.03
2022-08-08T08:45:21.097Z,100185.38
2022-08-08T08:47:54.479Z,100189.38
2022-08-08T08:50:32.472Z,100192.28
2022-08-08T08:53:55.360Z,100182.00
2022-08-08T08:56:07.791Z,100180.47
2022-08-08T08:58:46.931Z,100184.56
2022-08-08T09:01:24.305Z,100182.44
2022-08-08T09:03:55.608Z,100180.91
2022-08-08T09:06:33.607Z,100174.44
2022-08-08T09:09:40.025Z,100171.94
2022-08-08T09:12:23.129Z,100166.56
2022-08-08T09:14:53.847Z,100166.81
2022-08-08T09:17:40.711Z,100168.97
2022-08-08T09:21:57.641Z,100170.53
2022-08-08T09:23:04.461Z,100166.28
2022-08-08T09:25:57.831Z,100164.88
2022-08-08T09:28:35.572Z,100171.75
2022-08-08T09:31:15.619Z,100176.53
2022-08-08T09:34:15.521Z,100173.00
2022-08-08T09:36:40.335Z,100180.91
2022-08-08T09:39:21.815Z,100173.47
2022-08-08T09:42:20.044Z,100176.38
2022-08-08T09:45:04.061Z,100169.47
2022-08-08T09:48:05.120Z,100173.34
2022-08-08T09:50:32.470Z,100168.44
2022-08-08T09:53:23.656Z,100174.38
2022-08-08T09:56:04.113Z,100173.47
2022-08-08T09:58:44.545Z,100162.16
2022-08-08T10:01:14.453Z,100164.38
2022-08-08T10:03:46.066Z,100169.38
2022-08-08T10:06:26.703Z,100165.00
2022-08-08T10:08:56.844Z,100165.44
2022-08-08T10:12:26.664Z,100164.59
2022-08-08T10:14:28.606Z,100171.34
2022-08-08T10:16:58.922Z,100171.66
2022-08-08T10:19:46.128Z,100159.91
2022-08-08T10:22:27.496Z,100161.41
2022-08-08T10:25:15.479Z,100168.06
2022-08-08T10:27:43.644Z,100160.00
2022-08-08T10:30:16.794Z,100157.53
2022-08-08T10:33:00.691Z,100163.06
2022-08-08T10:36:09.452Z,100171.97
2022-08-08T10:38:20.227Z,100166.78
2022-08-08T10:40:52.106Z,100162.94
2022-08-08T10:43:22.978Z,100162.06
2022-08-08T10:45:56.913Z,100170.41
2022-08-08T10:48:59.162Z,100168.97
2022-08-08T10:51:47.269Z,100164.38
2022-08-08T10:54:24.713Z,100173.41
2022-08-08T10:56:59.944Z,100166.78
2022-08-08T10:59:27.129Z,100167.94
2022-08-08T11:01:58.632Z,100168.44
2022-08-08T11:04:39.292Z,100168.19
2022-08-08T11:07:06.635Z,100172.38
2022-08-08T11:09:34.654Z,100171.84
2022-08-08T11:12:13.192Z,100167.16
2022-08-08T11:15:02.447Z,100174.13
2022-08-08T11:18:01.118Z,100173.59
2022-08-08T11:20:28.190Z,100169.28
2022-08-08T11:22:57.963Z,100166.75
2022-08-08T11:25:53.316Z,100172.31
2022-08-08T11:28:15.598Z,100171.72
2022-08-08T11:30:50.317Z,100162.34
2022-08-08T11:33:51.423Z,100164.97
2022-08-08T11:36:14.451Z,100162.25
2022-08-08T11:38:54.794Z,100157.75
2022-08-08T11:41:24.447Z,100159.28
2022-08-08T11:43:53.688Z,100155.34
2022-08-08T11:46:24.614Z,100156.00
2022-08-08T11:48:52.887Z,100157.44
2022-08-08T11:51:29.470Z,100161.19
2022-08-08T11:54:09.715Z,100161.72
2022-08-08T11:56:55.953Z,100158.72
2022-08-08T12:00:01.536Z,100163.19
2022-08-08T12:02:32.372Z,100160.63
2022-08-08T12:05:12.281Z,100150.41
2022-08-08T12:07:54.061Z,100151.19
2022-08-08T12:10:24.599Z,100151.00
2022-08-08T12:13:10.589Z,100152.19
2022-08-08T12:15:42.204Z,100155.06
2022-08-08T12:18:20.657Z,100142.94
2022-08-08T12:20:50.757Z,100151.78
2022-08-08T12:23:40.374Z,100140.88
2022-08-08T12:26:27.315Z,100133.53
2022-08-08T12:28:58.911Z,100146.34
2022-08-08T12:31:39.316Z,100140.00
2022-08-08T12:34:39.620Z,100136.44
2022-08-08T12:37:11.274Z,100132.38
2022-08-08T12:40:00.602Z,100129.06
2022-08-08T12:42:27.396Z,100130.97
2022-08-08T12:45:53.923Z,100131.59
2022-08-08T12:48:10.096Z,100131.06
2022-08-08T12:50:57.212Z,100124.09
2022-08-08T12:53:37.629Z,100134.78
2022-08-08T12:56:19.373Z,100135.41
2022-08-08T12:58:52.208Z,100137.44
2022-08-08T13:01:34.394Z,100137.16
2022-08-08T13:04:19.389Z,100134.63
2022-08-08T13:07:00.514Z,100137.81
2022-08-08T13:10:05.300Z,100141.09
2022-08-08T13:12:46.883Z,100131.50
2022-08-08T13:15:16.787Z,100137.13
2022-08-08T13:18:09.078Z,100140.81
2022-08-08T13:20:31.276Z,100134.63
2022-08-08T13:23:29.968Z,100125.25
2022-08-08T13:25:50.435Z,100135.78
2022-08-08T13:28:32.244Z,100132.38
2022-08-08T13:31:04.495Z,100129.69
2022-08-08T13:33:42.469Z,100126.81
2022-08-08T13:36:11.132Z,100130.03
2022-08-08T13:38:39.879Z,100125.94
2022-08-08T13:41:16.855Z,100119.31
2022-08-08T13:43:50.880Z,100114.00
2022-08-08T13:46:26.960Z,100125.78
2022-08-08T13:49:12.056Z,100121.88
2022-08-08T13:51:53.998Z,100118.13
2022-08-08T13:54:29.359Z,100120.50
2022-08-08T13:57:18.528Z,100121.00
2022-08-08T14:00:05.476Z,100130.91
2022-08-08T14:02:41.255Z,100126.09
2022-08-08T14:05:22.423Z,100124.56
2022-08-08T14:10:49.841Z,100119.50
2022-08-08T14:13:31.044Z,100129.53
2022-08-08T14:16:16.048Z,100133.38
2022-08-08T14:19:11.002Z,100130.91
2022-08-08T14:21:48.869Z,100123.38
2022-08-08T14:24:33.486Z,100134.69
2022-08-08T14:27:01.776Z,100132.28
2022-08-08T14:29:34.485Z,100132.97
2022-08-08T14:32:11.829Z,100131.38
2022-08-08T14:34:43.641Z,100131.16
2022-08-08T14:37:17.771Z,100136.63
2022-08-08T14:39:54.185Z,100138.69
2022-08-08T14:42:35.820Z,100137.91
2022-08-08T14:45:10.011Z,100138.41
2022-08-08T14:47:52.328Z,100140.03
2022-08-08T14:50:38.847Z,100147.47
2022-08-08T14:53:14.488Z,100143.78
2022-08-08T14:55:42.929Z,100141.81
2022-08-08T14:58:12.040Z,100138.84
2022-08-08T15:00:44.946Z,100132.41
2022-08-08T15:03:15.925Z,100139.09
2022-08-08T15:05:53.301Z,100136.69
2022-08-08T15:08:34.778Z,100143.50
2022-08-08T15:11:11.409Z,100131.53
2022-08-08T15:14:01.653Z,100131.53
2022-08-08T15:16:27.921Z,100126.09
2022-08-08T15:18:55.258Z,100127.50
2022-08-08T15:21:22.186Z,100130.91
2022-08-08T15:23:52.646Z,100128.00
2022-08-08T15:26:21.129Z,100123.50
2022-08-08T15:28:54.229Z,100127.09
2022-08-08T15:31:55.527Z,100116.25
2022-08-08T15:34:18.770Z,100119.56
2022-08-08T15:36:56.766Z,100113.72
2022-08-08T15:39:23.622Z,100118.38
2022-08-08T15:41:52.726Z,100117.25
2022-08-08T15:44:21.037Z,100119.44
2022-08-08T15:46:50.870Z,100120.59
2022-08-08T15:49:20.769Z,100113.75
2022-08-08T15:51:54.583Z,100116.34
2022-08-08T15:54:39.044Z,100110.38
2022-08-08T15:57:08.883Z,100116.53
2022-08-08T16:00:05.861Z,100118.34
2022-08-08T16:02:30.431Z,100121.63
2022-08-08T16:05:01.461Z,100118.63
2022-08-08T16:07:51.933Z,100125.44
2022-08-08T16:13:11.481Z,100119.88
2022-08-08T16:13:34.467Z,100127.94
2022-08-08T16:15:57.971Z,100122.91
2022-08-08T16:18:33.137Z,100119.75
2022-08-08T16:21:01.156Z,100117.13
2022-08-08T16:23:32.402Z,100126.09
2022-08-08T16:26:04.585Z,100124.25
2022-08-08T16:28:41.461Z,100124.28
2022-08-08T16:31:09.421Z,100127.78
2022-08-08T16:33:40.520Z,100123.19
2022-08-08T16:36:12.833Z,100125.16
2022-08-08T16:38:46.456Z,100131.81
2022-08-08T16:41:22.698Z,100121.81
2022-08-08T16:43:52.038Z,100126.00
2022-08-08T16:46:36.229Z,100128.63
2022-08-08T16:49:07.799Z,100125.88
2022-08-08T16:55:02.050Z,100125.09
2022-08-08T16:55:19.334Z,100128.56
2022-08-08T16:58:11.883Z,100132.31
2022-08-08T17:00:08.623Z,100132.47
2022-08-08T17:02:39.693Z,100137.03
2022-08-08T17:05:12.970Z,100132.66
2022-08-08T17:07:42.025Z,100135.25
2022-08-08T17:10:11.541Z,100129.09
2022-08-08T17:12:47.043Z,100131.19
2022-08-08T17:15:20.734Z,100132.28
2022-08-08T17:18:02.847Z,100132.50
2022-08-08T17:20:39.543Z,100138.13
2022-08-08T17:23:17.750Z,100145.44
2022-08-08T17:25:55.044Z,100142.06
2022-08-08T17:28:30.719Z,100151.78
2022-08-08T17:31:44.106Z,100154.53
2022-08-08T17:34:48.660Z,100148.50
2022-08-08T17:36:55.155Z,100158.19
2022-08-08T17:40:04.656Z,100159.72
2022-08-08T17:42:15.561Z,100160.50
2022-08-08T17:44:44.055Z,100159.50
2022-08-08T17:47:16.324Z,100162.94
2022-08-08T17:49:53.115Z,100170.03
2022-08-08T17:52:28.483Z,100164.56
2022-08-08T17:54:56.881Z,100164.22
2022-08-08T17:57:24.893Z,100177.22
2022-08-08T17:59:58.544Z,100175.31
2022-08-08T18:02:31.032Z,100173.16
2022-08-08T18:04:58.754Z,100180.13
2022-08-08T18:08:02.223Z,100178.94
2022-08-08T18:10:15.480Z,100184.81
2022-08-08T18:12:44.430Z,100178.06
2022-08-08T18:15:13.570Z,100191.69
2022-08-08T18:18:27.434Z,100189.22
2022-08-08T18:20:42.941Z,100194.03
2022-08-08T18:23:15.061Z,100196.09
2022-08-08T18:25:43.308Z,100203.50
2022-08-08T18:28:13.459Z,100205.41
2022-08-08T18:30:42.780Z,100201.13
2022-08-08T18:33:36.278Z,100196.06
2022-08-08T18:36:02.758Z,100203.44
2022-08-08T18:38:31.100Z,100204.50
2022-08-08T18:40:59.399Z,100196.69
2022-08-08T18:43:42.609Z,100195.91
2022-08-08T18:46:56.558Z,100199.09
2022-08-08T18:48:58.379Z,100205.72
2022-08-08T18:51:53.856Z,100206.69
2022-08-08T18:54:22.507Z,100205.94
2022-08-08T18:56:57.156Z,100219.41
2022-08-08T18:59:24.408Z,100212.56
2022-08-08T19:02:27.578Z,100207.59
2022-08-08T19:04:42.670Z,100211.31
2022-08-08T19:07:10.602Z,100216.88
2022-08-08T19:09:48.978Z,100205.50
2022-08-08T19:12:26.718Z,100218.25
2022-08-08T19:14:53.747Z,100216.69
2022-08-08T19:17:28.967Z,100222.25
2022-08-08T19:20:09.028Z,100222.63
2022-08-08T19:22:36.423Z,100224.66
2022-08-08T19:26:02.324Z,100215.00
2022-08-08T19:27:57.497Z,100218.00
2022-08-08T19:30:27.198Z,100218.94
2022-08-08T19:33:00.773Z,100212.72
2022-08-08T19:35:44.045Z,100217.00
2022-08-08T19:38:17.242Z,100217.00
2022-08-08T19:40:54.601Z,100214.53
2022-08-08T19:43:28.357Z,100221.91
2022-08-08T19:45:58.885Z,100215.69
2022-08-08T19:48:29.336Z,100211.44
2022-08-08T19:50:59.071Z,100213.28
2022-08-08T19:53:54.203Z,100216.81
2022-08-08T19:56:13.803Z,100225.91
2022-08-08T19:58:43.302Z,100212.81
2022-08-08T20:01:22.717Z,100218.34
2022-08-08T20:04:00.988Z,100216.72
2022-08-08T20:06:29.678Z,100209.44
2022-08-08T20:08:56.826Z,100213.75
2022-08-08T20:11:24.479Z,100210.13
2022-08-08T20:14:32.212Z,100213.56
2022-08-08T20:16:39.631Z,100211.63
2022-08-08T20:19:08.817Z,100216.91
2022-08-08T20:21:38.093Z,100206.00
2022-08-08T20:24:07.791Z,100213.97
2022-08-08T20:26:38.409Z,100220.94
2022-08-08T20:29:08.829Z,100214.53
2022-08-08T20:32:08.066Z,100219.69
2022-08-08T20:34:29.944Z,100222.06
2022-08-08T20:37:03.109Z,100226.38
2022-08-08T20:39:39.116Z,100223.63
2022-08-08T20:42:28.224Z,100221.78
2022-08-08T20:44:56.790Z,100222.63
2022-08-08T20:47:24.068Z,100221.78
2022-08-08T20:49:54.482Z,100220.06
2022-08-08T20:52:25.937Z,100221.78
2022-08-08T20:54:52.732Z,100221.78
2022-08-08T20:57:20.998Z,100226.19
2022-08-08T20:59:48.716Z,100222.63
2022-08-08T21:02:25.391Z,100231.44
2022-08-08T21:05:00.546Z,100234.22
2022-08-08T21:07:47.998Z,100234.31
2022-08-08T21:10:17.926Z,100237.94
2022-08-08T21:12:52.956Z,100245.13
2022-08-08T21:16:04.610Z,100248.63
2022-08-08T21:18:09.739Z,100249.47
2022-08-08T21:20:39.092Z,100244.91
2022-08-08T21:23:09.185Z,100244.91
2022-08-08T21:25:36.786Z,100250.28
2022-08-08T21:28:14.954Z,100244.03
2022-08-08T21:30:45.265Z,100248.53
2022-08-08T21:33:16.972Z,100251.31
2022-08-08T21:36:17.682Z,100247.00
2022-08-08T21:38:31.131Z,100238.31
2022-08-08T21:40:58.219Z,100240.25
2022-08-08T21:43:32.898Z,100246.53
2022-08-08T21:48:07.325Z,100252.16
2022-08-08T21:48:57.298Z,100258.00
2022-08-08T21:54:27.209Z,100256.53
2022-08-08T21:54:58.141Z,100260.38
2022-08-08T21:57:08.218Z,100252.72
2022-08-08T22:00:02.894Z,100250.13
2022-08-08T22:02:24.929Z,100252.03
2022-08-08T22:04:55.936Z,100254.59
2022-08-08T22:07:40.248Z,100252.81
2022-08-08T22:10:18.270Z,100250.03
2022-08-08T22:13:18.325Z,100260.56
2022-08-08T22:15:58.503Z,100259.59
2022-08-08T22:18:33.040Z,100247.84
2022-08-08T22:21:11.212Z,100242.22
2022-08-08T22:23:52.216Z,100237.53
2022-08-08T22:26:27.764Z,100239.16
2022-08-08T22:29:12.882Z,100248.03
2022-08-08T22:31:44.130Z,100245.28
2022-08-08T22:34:30.887Z,100241.66
2022-08-08T22:36:57.689Z,100242.44
2022-08-08T22:39:28.316Z,100237.84
2022-08-08T22:42:10.211Z,100233.25
2022-08-08T22:44:37.967Z,100220.66
2022-08-08T22:47:18.067Z,100230.38
2022-08-08T22:49:45.152Z,100227.81
2022-08-08T22:52:25.832Z,100227.91
2022-08-08T22:54:58.810Z,100225.22
2022-08-08T22:57:43.738Z,100227.91
2022-08-08T23:00:13.466Z,100224.19
2022-08-08T23:02:40.478Z,100226.88
2022-08-08T23:05:14.357Z,100217.19
2022-08-08T23:07:51.202Z,100227.91
2022-08-08T23:10:26.846Z,100223.63
2022-08-08T23:12:55.226Z,100228.97
2022-08-08T23:16:42.181Z,100229.91
2022-08-08T23:18:11.648Z,100229.06
2022-08-08T23:20:40.809Z,100228.19
2022-08-08T23:23:11.675Z,100233.63
2022-08-08T23:25:47.907Z,100229.22
2022-08-08T23:28:18.018Z,100241.56
2022-08-08T23:30:46.942Z,100238.78
2022-08-08T23:33:19.395Z,100231.56
2022-08-08T23:36:07.868Z,100234.88
2022-08-08T23:38:41.546Z,100239.06
2022-08-08T23:41:17.407Z,100233.44
2022-08-08T23:43:54.048Z,100240.22
2022-08-08T23:49:04.914Z,100242.41
2022-08-08T23:49:18.259Z,100236.59
2022-08-08T23:52:06.057Z,100229.13
2022-08-08T23:54:42.510Z,100233.97
2022-08-08T23:57:27.735Z,100236.22
